SLRY 
Reyes Airport
Reyes, Bolivia 
ICAOIATAStatus
SLRYREYOperational
LatitudeLongitude
14° 18' 15" S67° 21' 12" W
-14.304400-67.353401
Local Time (DST-4)UTC (GMT-4)
04-25-2014 02:43 am04-25-2014 06:43
Sunrise-SunsetLocalUTC
Begin Civil Twilight06:14 am10:14
Sunrise06:36 am10:36
Sunset06:17 pm22:17
End Civil Twilight06:39 pm22:39

Current Weather

METARObservedFlight Conditions

SLRY 242200Z 00000KT 9999 FEW020 30/23 Q1014

Thu, Apr 24, 2014 @ 22:00 UTC(Z)

(8 Hours, 43 Minutes ago)

VFR

(Visual Flight Rules)

WindVisibilityCloudsConditions
Calm
10 km or more
  • Few at 2,000' AGL
  • No significant weather
TemperaturesReadingsPrecipitation
Current Temp30°C (86°F)
Dewpoint23°C (73°F)
Heat Index34°C (93°F)
Humidity66%
Altimeter29.94"Hg
Sea Level Pressure1014mb
Field Elevation918.64'
None Recorded

Additional weather within a 92.6km radius of SLRY

Location METAR
SLRQ

20.7km S (229°)

8 hours, 43 minutes ago
VFR VFR    MVFR MVFR    IFR IFR    LIFR LIFR    Unknown Unknown

Previous 24 hour Weather Graphs

  Loading...

CheckWX.com is intended as a tool to help pilots better visualize weather data.   It is not intended as a substitute for an official weather briefing obtained from a Flight Service Station.
CheckWX.com does not meet the FAA requirements for an official pre-flight weather briefing.   Therefore, it's important that pilots still call and obtain an official FSS pre-flight weather briefing.